createdAt,value
2023-05-10T00:01:23.582Z,7.30
2023-05-10T00:03:54.800Z,7.10
2023-05-10T00:06:26.925Z,6.90
2023-05-10T00:08:58.467Z,7.30
2023-05-10T00:11:30.133Z,6.90
2023-05-10T00:14:01.327Z,7.10
2023-05-10T00:16:33.028Z,7.40
2023-05-10T00:19:04.493Z,7.40
2023-05-10T00:21:36.324Z,7.20
2023-05-10T00:24:08.504Z,6.50
2023-05-10T00:26:40.076Z,6.40
2023-05-10T00:29:11.535Z,6.20
2023-05-10T00:31:42.992Z,6.50
2023-05-10T00:34:15.214Z,6.50
2023-05-10T00:36:46.674Z,6.20
2023-05-10T00:39:18.051Z,6.30
2023-05-10T00:41:49.954Z,6.50
2023-05-10T00:44:21.741Z,6.30
2023-05-10T00:46:53.691Z,6.70
2023-05-10T00:49:25.614Z,6.70
2023-05-10T00:51:57.208Z,6.40
2023-05-10T00:54:29.167Z,6.60
2023-05-10T00:57:00.658Z,6.10
2023-05-10T00:59:33.000Z,6.30
2023-05-10T01:02:04.969Z,6.30
2023-05-10T01:04:37.592Z,5.90
2023-05-10T01:07:09.334Z,6.00
2023-05-10T01:09:41.248Z,6.00
2023-05-10T01:12:13.328Z,6.10
2023-05-10T01:14:45.689Z,5.80
2023-05-10T01:17:18.455Z,5.70
2023-05-10T01:19:50.275Z,5.90
2023-05-10T01:22:59.725Z,6.10
2023-05-10T01:25:50.975Z,5.70
2023-05-10T01:28:48.507Z,5.50
2023-05-10T01:31:42.738Z,5.40
2023-05-10T01:34:19.572Z,5.30
2023-05-10T01:36:54.757Z,5.10
2023-05-10T01:39:35.050Z,4.60
2023-05-10T01:42:11.053Z,4.80
2023-05-10T01:44:48.990Z,4.70
2023-05-10T01:47:28.063Z,4.60
2023-05-10T01:50:03.976Z,4.80
2023-05-10T01:52:40.677Z,5.00
2023-05-10T01:55:15.625Z,4.90
2023-05-10T01:57:50.341Z,4.80
2023-05-10T02:00:23.539Z,4.90
2023-05-10T02:02:58.258Z,5.00
2023-05-10T02:05:31.640Z,5.00
2023-05-10T02:08:05.591Z,4.90
2023-05-10T02:10:39.258Z,5.30
2023-05-10T02:13:12.680Z,4.90
2023-05-10T02:15:46.238Z,5.00
2023-05-10T02:18:18.176Z,5.00
2023-05-10T02:20:50.457Z,5.20
2023-05-10T02:23:24.099Z,4.30
2023-05-10T02:25:56.382Z,4.70
2023-05-10T02:28:29.184Z,4.90
2023-05-10T02:31:00.919Z,4.70
2023-05-10T02:33:35.207Z,4.80
2023-05-10T02:36:09.290Z,5.10
2023-05-10T02:38:42.640Z,4.70
2023-05-10T02:41:15.135Z,4.40
2023-05-10T02:43:48.519Z,4.60
2023-05-10T02:46:20.130Z,4.80
2023-05-10T02:48:51.434Z,4.70
2023-05-10T02:51:26.557Z,4.90
2023-05-10T02:53:59.665Z,4.40
2023-05-10T02:56:35.482Z,4.80
2023-05-10T02:59:07.350Z,5.20
2023-05-10T03:01:38.980Z,4.70
2023-05-10T03:04:11.788Z,4.60
2023-05-10T03:06:44.375Z,4.90
2023-05-10T03:09:17.349Z,4.80
2023-05-10T03:11:59.052Z,4.90
2023-05-10T03:14:41.896Z,4.80
2023-05-10T03:17:18.197Z,5.00
2023-05-10T03:19:55.383Z,4.60
2023-05-10T03:22:33.124Z,5.10
2023-05-10T03:25:07.964Z,5.70
2023-05-10T03:27:42.304Z,5.30
2023-05-10T03:30:16.023Z,5.20
2023-05-10T03:32:47.950Z,5.00
2023-05-10T03:35:21.145Z,5.50
2023-05-10T03:37:52.289Z,5.10
2023-05-10T03:40:24.395Z,4.80
2023-05-10T03:42:55.773Z,5.10
2023-05-10T03:45:27.528Z,4.60
2023-05-10T03:47:59.266Z,4.90
2023-05-10T03:50:30.963Z,5.00
2023-05-10T03:53:03.309Z,5.00
2023-05-10T03:55:37.673Z,4.90
2023-05-10T03:58:09.389Z,5.00
2023-05-10T04:00:44.908Z,4.90
2023-05-10T04:03:18.333Z,5.00
2023-05-10T04:05:49.870Z,4.90
2023-05-10T04:08:21.459Z,5.40
2023-05-10T04:10:52.776Z,5.20
2023-05-10T04:13:25.057Z,5.00
2023-05-10T04:15:56.653Z,5.00
2023-05-10T04:18:28.615Z,5.50
2023-05-10T04:21:00.096Z,5.40
2023-05-10T04:23:31.924Z,5.20
2023-05-10T04:26:06.457Z,4.90
2023-05-10T04:28:37.608Z,5.00
2023-05-10T04:31:10.525Z,5.20
2023-05-10T04:33:42.470Z,4.90
2023-05-10T04:36:14.997Z,4.80
2023-05-10T04:38:46.482Z,5.00
2023-05-10T04:41:17.604Z,5.30
2023-05-10T04:43:50.166Z,5.50
2023-05-10T04:46:21.605Z,5.20
2023-05-10T04:48:53.019Z,5.30
2023-05-10T04:51:24.229Z,5.70
2023-05-10T04:54:05.247Z,5.60
2023-05-10T04:56:38.601Z,4.90
2023-05-10T04:59:10.199Z,4.80
2023-05-10T05:01:41.935Z,5.10
2023-05-10T05:04:13.369Z,4.80
2023-05-10T05:06:44.699Z,4.80
2023-05-10T05:09:16.470Z,4.70
2023-05-10T05:11:48.161Z,4.90
2023-05-10T05:14:22.161Z,4.60
2023-05-10T05:16:53.405Z,4.60
2023-05-10T05:19:25.038Z,5.00
2023-05-10T05:21:57.379Z,4.80
2023-05-10T05:24:28.671Z,4.50
2023-05-10T05:27:00.399Z,5.00
2023-05-10T05:29:32.016Z,4.50
2023-05-10T05:32:03.764Z,4.40
2023-05-10T05:34:35.611Z,4.90
2023-05-10T05:37:07.076Z,4.30
2023-05-10T05:39:40.002Z,4.80
2023-05-10T05:42:12.143Z,4.40
2023-05-10T05:44:43.706Z,4.10
2023-05-10T05:47:15.487Z,4.20
2023-05-10T05:49:47.589Z,3.90
2023-05-10T05:52:19.244Z,4.20
2023-05-10T05:54:50.577Z,4.10
2023-05-10T05:57:22.162Z,4.80
2023-05-10T05:59:53.779Z,5.20
2023-05-10T06:02:25.538Z,4.30
2023-05-10T06:04:56.922Z,5.10
2023-05-10T06:07:28.483Z,5.20
2023-05-10T06:09:59.710Z,4.00
2023-05-10T06:12:31.568Z,3.40
2023-05-10T06:15:03.337Z,3.30
2023-05-10T06:17:34.896Z,2.50
2023-05-10T06:20:07.074Z,4.90
2023-05-10T06:22:38.449Z,2.60
2023-05-10T06:25:11.665Z,2.00
2023-05-10T06:27:43.302Z,2.20
2023-05-10T06:30:16.755Z,13.50
2023-05-10T06:32:48.366Z,7.60
2023-05-10T06:35:20.840Z,4.70
2023-05-10T06:37:52.430Z,2.40
2023-05-10T06:40:23.799Z,2.20
2023-05-10T06:42:55.066Z,2.10
2023-05-10T06:45:26.412Z,2.40
2023-05-10T06:47:58.355Z,2.20
2023-05-10T06:50:29.858Z,2.90
2023-05-10T06:53:01.691Z,2.70
2023-05-10T06:55:33.482Z,2.80
2023-05-10T06:58:04.884Z,2.30
2023-05-10T07:00:40.291Z,2.30
2023-05-10T07:03:12.071Z,2.00
2023-05-10T07:05:44.267Z,1.60
2023-05-10T07:08:15.930Z,1.80
2023-05-10T07:10:48.109Z,1.70
2023-05-10T07:13:19.303Z,1.60
2023-05-10T07:15:51.068Z,1.60
2023-05-10T07:18:22.560Z,1.80
2023-05-10T07:20:54.140Z,2.60
2023-05-10T07:23:25.475Z,2.70
2023-05-10T07:25:58.520Z,1.90
2023-05-10T07:28:29.978Z,2.20
2023-05-10T07:31:01.903Z,4.50
2023-05-10T07:33:33.402Z,3.20
2023-05-10T07:36:04.816Z,3.00
2023-05-10T07:38:37.481Z,2.80
2023-05-10T07:41:09.767Z,2.40
2023-05-10T07:43:41.127Z,2.00
2023-05-10T07:46:12.534Z,2.60
2023-05-10T07:48:44.097Z,4.70
2023-05-10T07:51:15.690Z,2.00
2023-05-10T07:53:47.150Z,2.00
2023-05-10T07:56:30.764Z,3.50
2023-05-10T07:59:02.486Z,3.00
2023-05-10T08:01:36.837Z,2.60
2023-05-10T08:04:08.711Z,2.10
2023-05-10T08:06:40.419Z,2.50
2023-05-10T08:09:12.302Z,2.10
2023-05-10T08:11:43.922Z,2.00
2023-05-10T08:14:15.235Z,4.40
2023-05-10T08:16:46.579Z,9.70
2023-05-10T08:19:20.082Z,7.40
2023-05-10T08:21:52.068Z,4.60
2023-05-10T08:24:23.501Z,3.60
2023-05-10T08:26:55.050Z,4.10
2023-05-10T08:29:28.278Z,3.00
2023-05-10T08:32:00.505Z,1.70
2023-05-10T08:34:32.602Z,3.60
2023-05-10T08:37:04.125Z,2.10
2023-05-10T08:39:39.435Z,2.50
2023-05-10T08:42:11.811Z,1.90
2023-05-10T08:44:44.144Z,2.00
2023-05-10T08:47:17.856Z,1.70
2023-05-10T08:49:52.269Z,2.00
2023-05-10T08:52:25.018Z,2.10
2023-05-10T08:54:56.394Z,2.90
2023-05-10T08:57:28.298Z,2.10
2023-05-10T09:00:00.399Z,3.20
2023-05-10T09:02:32.192Z,1.80
2023-05-10T09:05:04.147Z,2.30
2023-05-10T09:07:36.403Z,3.40
2023-05-10T09:10:10.610Z,4.30
2023-05-10T09:12:42.843Z,2.60
2023-05-10T09:15:17.371Z,7.40
2023-05-10T09:17:49.943Z,5.90
2023-05-10T09:20:21.533Z,7.00
2023-05-10T09:22:53.092Z,6.60
2023-05-10T09:25:24.560Z,3.60
2023-05-10T09:27:57.323Z,2.60
2023-05-10T09:30:30.780Z,4.40
2023-05-10T09:33:03.935Z,3.30
2023-05-10T09:35:37.253Z,9.20
2023-05-10T09:38:09.304Z,13.20
2023-05-10T09:40:40.826Z,6.70
2023-05-10T09:43:12.997Z,5.80
2023-05-10T09:45:45.189Z,4.20
2023-05-10T09:48:16.650Z,9.20
2023-05-10T09:50:48.072Z,5.00
2023-05-10T09:53:20.173Z,13.40
2023-05-10T09:55:52.097Z,10.10
2023-05-10T09:58:23.495Z,5.40
2023-05-10T10:00:56.164Z,3.60
2023-05-10T10:03:28.951Z,3.10
2023-05-10T10:06:01.666Z,1.90
2023-05-10T10:08:33.357Z,2.60
2023-05-10T10:11:05.006Z,3.10
2023-05-10T10:13:36.868Z,3.10
2023-05-10T10:16:11.078Z,3.80
2023-05-10T10:18:43.084Z,4.40
2023-05-10T10:21:16.036Z,3.90
2023-05-10T10:23:48.381Z,5.10
2023-05-10T10:26:22.221Z,7.10
2023-05-10T10:29:06.578Z,3.90
2023-05-10T10:31:43.191Z,2.80
2023-05-10T10:34:25.197Z,2.30
2023-05-10T10:36:57.505Z,2.40
2023-05-10T10:39:29.313Z,2.00
2023-05-10T10:42:01.655Z,2.00
2023-05-10T10:44:41.750Z,1.80
2023-05-10T10:47:30.028Z,2.40
2023-05-10T10:50:14.079Z,3.80
2023-05-10T10:52:46.807Z,5.50
2023-05-10T10:55:20.318Z,5.90
2023-05-10T10:57:55.853Z,5.60
2023-05-10T11:00:32.867Z,9.50
2023-05-10T11:03:14.520Z,6.20
2023-05-10T11:05:47.358Z,5.20
2023-05-10T11:08:22.068Z,6.80
2023-05-10T11:11:09.744Z,7.70
2023-05-10T11:13:44.781Z,7.50
2023-05-10T11:16:19.217Z,5.70
2023-05-10T11:19:05.979Z,5.90
2023-05-10T11:21:47.841Z,4.40
2023-05-10T11:24:21.472Z,7.30
2023-05-10T11:26:54.034Z,3.30
2023-05-10T11:29:27.494Z,5.20
2023-05-10T11:32:01.817Z,3.20
2023-05-10T11:34:34.830Z,3.80
2023-05-10T11:37:06.622Z,4.70
2023-05-10T11:39:37.886Z,3.60
2023-05-10T11:42:11.128Z,19.60
2023-05-10T11:44:44.491Z,27.40
2023-05-10T11:47:16.030Z,23.20
2023-05-10T11:49:49.219Z,29.80
2023-05-10T11:52:22.726Z,6.10
2023-05-10T11:54:57.258Z,6.20
2023-05-10T11:57:32.473Z,5.30
2023-05-10T12:00:05.067Z,4.10
2023-05-10T12:02:40.023Z,3.30
2023-05-10T12:05:13.173Z,4.50
2023-05-10T12:07:44.429Z,4.80
2023-05-10T12:10:18.624Z,3.40
2023-05-10T12:12:54.383Z,4.80
2023-05-10T12:15:26.989Z,4.70
2023-05-10T12:17:59.179Z,3.00
2023-05-10T12:20:32.139Z,3.90
2023-05-10T12:23:04.633Z,3.10
2023-05-10T12:25:37.922Z,4.60
2023-05-10T12:28:10.920Z,5.80
2023-05-10T12:30:42.848Z,2.30
2023-05-10T12:33:17.749Z,2.00
2023-05-10T12:35:51.466Z,1.80
2023-05-10T12:38:31.996Z,2.10
2023-05-10T12:41:05.024Z,2.50
2023-05-10T12:43:37.066Z,2.00
2023-05-10T12:46:12.829Z,3.10
2023-05-10T12:48:46.448Z,3.90
2023-05-10T12:51:20.573Z,2.10
2023-05-10T12:53:51.916Z,2.30
2023-05-10T12:56:23.102Z,3.40
2023-05-10T12:58:55.070Z,2.60
2023-05-10T13:01:26.995Z,6.50
2023-05-10T13:03:58.139Z,2.80
2023-05-10T13:06:29.613Z,2.50
2023-05-10T13:09:01.173Z,3.70
2023-05-10T13:11:32.863Z,2.60
2023-05-10T13:14:04.781Z,2.30
2023-05-10T13:16:36.842Z,2.30
2023-05-10T13:19:08.081Z,2.20
2023-05-10T13:21:39.734Z,2.20
2023-05-10T13:24:12.099Z,2.00
2023-05-10T13:26:43.657Z,2.00
2023-05-10T13:29:14.911Z,2.70
2023-05-10T13:31:47.753Z,3.20
2023-05-10T13:34:21.630Z,3.30
2023-05-10T13:36:54.036Z,3.10
2023-05-10T13:39:26.066Z,2.60
2023-05-10T13:41:57.605Z,2.00
2023-05-10T13:44:29.103Z,2.40
2023-05-10T13:47:01.163Z,2.40
2023-05-10T13:49:33.369Z,2.40
2023-05-10T13:52:07.851Z,3.60
2023-05-10T13:54:39.710Z,3.30
2023-05-10T13:57:13.825Z,2.60
2023-05-10T13:59:45.917Z,2.90
2023-05-10T14:02:17.099Z,3.40
2023-05-10T14:04:49.328Z,3.20
2023-05-10T14:07:21.481Z,3.00
2023-05-10T14:09:53.073Z,3.00
2023-05-10T14:12:24.459Z,3.20
2023-05-10T14:14:59.331Z,3.10
2023-05-10T14:17:31.108Z,2.90
2023-05-10T14:20:03.811Z,3.00
2023-05-10T14:22:35.192Z,2.90
2023-05-10T14:25:07.835Z,3.20
2023-05-10T14:27:39.076Z,2.80
2023-05-10T14:30:12.959Z,2.30
2023-05-10T14:32:44.862Z,2.50
2023-05-10T14:35:19.379Z,2.70
2023-05-10T14:37:51.234Z,2.40
2023-05-10T14:40:22.769Z,2.80
2023-05-10T14:42:55.355Z,2.90
2023-05-10T14:45:26.966Z,2.60
2023-05-10T14:47:58.489Z,2.80
2023-05-10T14:50:35.829Z,2.80
2023-05-10T14:53:07.609Z,2.30
2023-05-10T14:55:40.005Z,2.60
2023-05-10T14:58:11.544Z,2.90
2023-05-10T15:00:43.166Z,2.10
2023-05-10T15:03:16.093Z,2.20
2023-05-10T15:05:48.793Z,2.30
2023-05-10T15:08:20.102Z,1.80
2023-05-10T15:10:51.551Z,1.70
2023-05-10T15:13:23.142Z,2.10
2023-05-10T15:15:54.412Z,1.80
2023-05-10T15:18:25.956Z,1.60
2023-05-10T15:20:57.857Z,1.40
2023-05-10T15:23:29.882Z,1.60
2023-05-10T15:26:01.245Z,1.40
2023-05-10T15:28:34.286Z,1.80
2023-05-10T15:31:06.109Z,1.50
2023-05-10T15:33:38.948Z,1.70
2023-05-10T15:36:10.837Z,1.50
2023-05-10T15:38:42.199Z,1.50
2023-05-10T15:41:13.309Z,1.90
2023-05-10T15:43:44.824Z,2.30
2023-05-10T15:46:16.086Z,2.10
2023-05-10T15:48:47.769Z,2.00
2023-05-10T15:51:19.863Z,1.70
2023-05-10T15:54:05.773Z,1.60
2023-05-10T15:56:38.256Z,1.80
2023-05-10T15:59:11.071Z,1.70
2023-05-10T16:01:42.766Z,1.80
2023-05-10T16:04:14.764Z,1.60
2023-05-10T16:06:46.450Z,1.80
2023-05-10T16:09:18.111Z,1.80
2023-05-10T16:11:49.796Z,1.80
2023-05-10T16:14:23.206Z,1.80
2023-05-10T16:16:54.851Z,2.30
2023-05-10T16:19:27.765Z,2.10
2023-05-10T16:22:01.500Z,2.00
2023-05-10T16:24:33.112Z,2.10
2023-05-10T16:27:04.839Z,2.80
2023-05-10T16:29:36.192Z,2.30
2023-05-10T16:32:08.094Z,2.00
2023-05-10T16:34:40.142Z,2.00
2023-05-10T16:37:11.913Z,2.00
2023-05-10T16:39:43.526Z,1.70
2023-05-10T16:42:16.245Z,1.90
2023-05-10T16:44:47.999Z,1.90
2023-05-10T16:47:20.004Z,1.90
2023-05-10T16:49:51.185Z,1.80
2023-05-10T16:52:22.387Z,1.90
2023-05-10T16:54:55.446Z,1.70
2023-05-10T16:57:27.260Z,1.60
2023-05-10T16:59:58.892Z,1.40
2023-05-10T17:02:30.477Z,1.70
2023-05-10T17:05:01.966Z,1.50
2023-05-10T17:07:33.353Z,1.40
2023-05-10T17:10:04.514Z,1.60
2023-05-10T17:12:36.260Z,1.70
2023-05-10T17:15:09.212Z,1.60
2023-05-10T17:17:40.939Z,1.60
2023-05-10T17:20:13.802Z,1.50
2023-05-10T17:22:45.150Z,1.70
2023-05-10T17:25:16.848Z,1.80
2023-05-10T17:27:48.655Z,1.80
2023-05-10T17:30:26.255Z,1.90
2023-05-10T17:32:57.454Z,1.70
2023-05-10T17:35:30.712Z,1.90
2023-05-10T17:38:02.152Z,1.80
2023-05-10T17:40:33.698Z,1.60
2023-05-10T17:43:05.963Z,1.80
2023-05-10T17:45:37.666Z,1.80
2023-05-10T17:48:11.542Z,1.90
2023-05-10T17:50:46.052Z,1.80
2023-05-10T17:53:17.285Z,2.00
2023-05-10T17:55:48.810Z,1.80
2023-05-10T17:58:20.319Z,1.90
2023-05-10T18:00:51.311Z,2.10
2023-05-10T18:03:22.835Z,2.20
2023-05-10T18:05:55.491Z,1.90
2023-05-10T18:08:28.874Z,2.10
2023-05-10T18:11:00.735Z,2.60
2023-05-10T18:13:32.381Z,2.50
2023-05-10T18:16:05.066Z,1.90
2023-05-10T18:18:37.236Z,1.80
2023-05-10T18:21:08.975Z,1.70
2023-05-10T18:23:40.442Z,2.10
2023-05-10T18:26:12.143Z,2.00
2023-05-10T18:28:43.593Z,1.80
2023-05-10T18:31:15.066Z,1.90
2023-05-10T18:33:46.945Z,1.80
2023-05-10T18:36:19.384Z,2.00
2023-05-10T18:38:51.224Z,1.80
2023-05-10T18:41:22.588Z,1.90
2023-05-10T18:43:54.004Z,2.00
2023-05-10T18:46:25.705Z,2.10
2023-05-10T18:48:57.284Z,2.00
2023-05-10T18:51:29.864Z,2.10
2023-05-10T18:54:01.234Z,2.30
2023-05-10T18:56:32.488Z,2.00
2023-05-10T18:59:04.052Z,2.00
2023-05-10T19:01:35.858Z,2.00
2023-05-10T19:04:08.738Z,2.00
2023-05-10T19:06:42.081Z,2.00
2023-05-10T19:09:15.825Z,1.60
2023-05-10T19:11:47.636Z,1.60
2023-05-10T19:14:20.188Z,1.50
2023-05-10T19:16:54.815Z,1.40
2023-05-10T19:19:28.022Z,1.60
2023-05-10T19:22:01.339Z,1.40
2023-05-10T19:24:38.258Z,1.60
2023-05-10T19:27:11.050Z,1.70
2023-05-10T19:29:43.873Z,1.60
2023-05-10T19:32:17.477Z,1.60
2023-05-10T19:34:49.155Z,1.50
2023-05-10T19:37:24.145Z,1.60
2023-05-10T19:39:57.879Z,1.60
2023-05-10T19:42:32.590Z,1.70
2023-05-10T19:45:04.565Z,1.60
2023-05-10T19:47:37.391Z,1.80
2023-05-10T19:50:17.433Z,1.80
2023-05-10T19:52:49.631Z,1.90
2023-05-10T19:55:30.512Z,2.00
2023-05-10T19:58:03.336Z,2.10
2023-05-10T20:00:35.700Z,1.90
2023-05-10T20:03:10.962Z,2.20
2023-05-10T20:05:42.915Z,2.10
2023-05-10T20:08:16.962Z,2.20
2023-05-10T20:10:52.334Z,2.00
2023-05-10T20:13:26.026Z,2.10
2023-05-10T20:16:04.668Z,2.20
2023-05-10T20:18:39.192Z,2.10
2023-05-10T20:21:13.423Z,2.10
2023-05-10T20:23:45.176Z,2.20
2023-05-10T20:26:17.673Z,2.00
2023-05-10T20:28:51.098Z,2.00
2023-05-10T20:31:25.614Z,1.80
2023-05-10T20:33:59.358Z,2.30
2023-05-10T20:36:33.764Z,2.20
2023-05-10T20:39:07.414Z,1.90
2023-05-10T20:41:39.255Z,2.10
2023-05-10T20:44:12.874Z,2.00
2023-05-10T20:46:45.160Z,1.90
2023-05-10T20:49:17.779Z,1.90
2023-05-10T20:51:49.260Z,1.80
2023-05-10T20:54:22.462Z,2.00
2023-05-10T20:56:54.532Z,1.90
2023-05-10T20:59:26.191Z,1.80
2023-05-10T21:01:58.047Z,1.80
2023-05-10T21:04:29.936Z,1.80
2023-05-10T21:07:01.046Z,2.00
2023-05-10T21:09:32.568Z,1.90
2023-05-10T21:12:04.279Z,1.80
2023-05-10T21:14:35.863Z,1.70
2023-05-10T21:17:07.404Z,1.80
2023-05-10T21:19:38.717Z,1.80
2023-05-10T21:22:10.056Z,2.00
2023-05-10T21:24:41.522Z,1.80
2023-05-10T21:27:13.311Z,2.00
2023-05-10T21:29:45.107Z,1.40
2023-05-10T21:32:16.283Z,1.70
2023-05-10T21:34:47.609Z,1.50
2023-05-10T21:37:19.653Z,1.60
2023-05-10T21:39:52.946Z,1.60
2023-05-10T21:42:24.388Z,1.40
2023-05-10T21:44:55.983Z,1.40
2023-05-10T21:47:27.712Z,1.40
2023-05-10T21:50:00.253Z,1.50
2023-05-10T21:52:31.965Z,1.50
2023-05-10T21:55:03.642Z,1.20
2023-05-10T21:57:35.320Z,1.50
2023-05-10T22:00:09.085Z,1.90
2023-05-10T22:02:41.074Z,2.00
2023-05-10T22:05:13.242Z,1.70
2023-05-10T22:07:44.792Z,1.80
2023-05-10T22:10:16.685Z,2.10
2023-05-10T22:12:48.446Z,2.00
2023-05-10T22:15:20.184Z,1.80
2023-05-10T22:17:51.685Z,1.60
2023-05-10T22:20:23.214Z,1.60
2023-05-10T22:22:54.970Z,1.50
2023-05-10T22:25:26.486Z,1.50
2023-05-10T22:27:57.756Z,1.70
2023-05-10T22:30:30.458Z,1.60
2023-05-10T22:33:03.738Z,1.40
2023-05-10T22:35:36.121Z,1.60
2023-05-10T22:38:07.130Z,1.60
2023-05-10T22:40:38.284Z,1.50
2023-05-10T22:43:09.565Z,1.70
2023-05-10T22:45:41.385Z,1.50
2023-05-10T22:48:13.302Z,1.40
2023-05-10T22:50:44.574Z,1.60
2023-05-10T22:53:15.799Z,1.60
2023-05-10T22:55:47.582Z,1.70
2023-05-10T22:58:19.256Z,1.80
2023-05-10T23:00:50.395Z,1.50
2023-05-10T23:03:22.054Z,1.90
2023-05-10T23:05:53.083Z,1.70
2023-05-10T23:08:24.637Z,1.60
2023-05-10T23:10:55.936Z,1.60
2023-05-10T23:13:27.314Z,1.70
2023-05-10T23:16:01.876Z,1.50
2023-05-10T23:18:33.688Z,1.70
2023-05-10T23:21:05.594Z,1.60
2023-05-10T23:23:37.514Z,1.40
2023-05-10T23:26:09.539Z,1.40
2023-05-10T23:28:41.179Z,1.40
2023-05-10T23:31:12.830Z,1.30
2023-05-10T23:33:44.386Z,1.30
2023-05-10T23:36:15.741Z,1.20
2023-05-10T23:38:47.240Z,1.10
2023-05-10T23:41:18.640Z,1.10
2023-05-10T23:43:49.898Z,1.00
2023-05-10T23:46:21.764Z,1.10
2023-05-10T23:48:52.962Z,1.00
2023-05-10T23:51:24.922Z,1.00
2023-05-10T23:53:56.421Z,0.90
2023-05-10T23:56:27.969Z,0.90
2023-05-10T23:58:59.307Z,0.90
